sensor_id;sensor_type;location;lat;lon;timestamp;P1;durP1;ratioP1;P2;durP2;ratioP2
46597;SDS011;32318;48.858;8.252;2023-09-12T00:04:45;15.73;;;7.15;;
46597;SDS011;32318;48.858;8.252;2023-09-12T00:12:49;12.57;;;7.07;;
46597;SDS011;32318;48.858;8.252;2023-09-12T00:20:49;12.32;;;7.15;;
46597;SDS011;32318;48.858;8.252;2023-09-12T00:28:50;14.98;;;6.80;;
46597;SDS011;32318;48.858;8.252;2023-09-12T00:36:50;17.40;;;7.40;;
46597;SDS011;32318;48.858;8.252;2023-09-12T00:44:51;18.38;;;7.35;;
46597;SDS011;32318;48.858;8.252;2023-09-12T00:52:52;16.33;;;7.22;;
46597;SDS011;32318;48.858;8.252;2023-09-12T01:00:54;22.00;;;8.63;;
46597;SDS011;32318;48.858;8.252;2023-09-12T01:08:56;25.45;;;8.38;;
46597;SDS011;32318;48.858;8.252;2023-09-12T01:16:57;15.20;;;6.97;;
46597;SDS011;32318;48.858;8.252;2023-09-12T01:33:41;17.90;;;6.65;;
46597;SDS011;32318;48.858;8.252;2023-09-12T01:41:42;16.98;;;7.25;;
46597;SDS011;32318;48.858;8.252;2023-09-12T01:57:49;14.60;;;7.53;;
46597;SDS011;32318;48.858;8.252;2023-09-12T02:05:49;12.63;;;6.93;;
46597;SDS011;32318;48.858;8.252;2023-09-12T02:13:50;13.25;;;6.57;;
46597;SDS011;32318;48.858;8.252;2023-09-12T02:21:50;14.23;;;7.20;;
46597;SDS011;32318;48.858;8.252;2023-09-12T02:29:50;13.48;;;6.78;;
46597;SDS011;32318;48.858;8.252;2023-09-12T02:37:51;16.42;;;6.60;;
46597;SDS011;32318;48.858;8.252;2023-09-12T02:45:51;16.08;;;7.05;;
46597;SDS011;32318;48.858;8.252;2023-09-12T02:53:51;12.55;;;7.00;;
46597;SDS011;32318;48.858;8.252;2023-09-12T03:01:52;18.50;;;7.80;;
46597;SDS011;32318;48.858;8.252;2023-09-12T03:09:52;14.75;;;7.55;;
46597;SDS011;32318;48.858;8.252;2023-09-12T03:17:52;12.82;;;6.85;;
46597;SDS011;32318;48.858;8.252;2023-09-12T03:25:52;19.13;;;6.72;;
46597;SDS011;32318;48.858;8.252;2023-09-12T03:33:53;16.70;;;7.15;;
46597;SDS011;32318;48.858;8.252;2023-09-12T03:41:53;19.90;;;7.18;;
46597;SDS011;32318;48.858;8.252;2023-09-12T03:49:53;16.17;;;6.93;;
46597;SDS011;32318;48.858;8.252;2023-09-12T03:57:53;13.95;;;6.85;;
46597;SDS011;32318;48.858;8.252;2023-09-12T04:05:54;22.58;;;8.25;;
46597;SDS011;32318;48.858;8.252;2023-09-12T04:13:54;26.60;;;6.82;;
46597;SDS011;32318;48.858;8.252;2023-09-12T04:21:54;17.77;;;7.15;;
46597;SDS011;32318;48.858;8.252;2023-09-12T04:29:54;16.95;;;7.63;;
46597;SDS011;32318;48.858;8.252;2023-09-12T04:37:55;19.75;;;7.20;;
46597;SDS011;32318;48.858;8.252;2023-09-12T04:45:55;12.32;;;7.13;;
46597;SDS011;32318;48.858;8.252;2023-09-12T04:53:55;13.85;;;7.20;;
46597;SDS011;32318;48.858;8.252;2023-09-12T05:01:56;11.70;;;6.63;;
46597;SDS011;32318;48.858;8.252;2023-09-12T05:09:56;16.08;;;7.68;;
46597;SDS011;32318;48.858;8.252;2023-09-12T05:17:57;19.38;;;7.28;;
46597;SDS011;32318;48.858;8.252;2023-09-12T05:25:57;17.50;;;7.38;;
46597;SDS011;32318;48.858;8.252;2023-09-12T05:33:57;16.48;;;7.50;;
46597;SDS011;32318;48.858;8.252;2023-09-12T05:41:57;19.58;;;9.20;;
46597;SDS011;32318;48.858;8.252;2023-09-12T05:49:58;16.80;;;7.22;;
46597;SDS011;32318;48.858;8.252;2023-09-12T05:57:59;16.17;;;8.20;;
46597;SDS011;32318;48.858;8.252;2023-09-12T06:05:59;20.40;;;7.70;;
46597;SDS011;32318;48.858;8.252;2023-09-12T06:14:00;19.58;;;7.85;;
46597;SDS011;32318;48.858;8.252;2023-09-12T06:22:00;20.90;;;7.93;;
46597;SDS011;32318;48.858;8.252;2023-09-12T06:30:00;28.38;;;8.07;;
46597;SDS011;32318;48.858;8.252;2023-09-12T06:38:00;20.35;;;7.40;;
46597;SDS011;32318;48.858;8.252;2023-09-12T06:46:01;19.98;;;7.18;;
46597;SDS011;32318;48.858;8.252;2023-09-12T06:54:01;29.27;;;9.32;;
46597;SDS011;32318;48.858;8.252;2023-09-12T07:02:01;19.60;;;8.27;;
46597;SDS011;32318;48.858;8.252;2023-09-12T07:10:02;28.30;;;9.32;;
46597;SDS011;32318;48.858;8.252;2023-09-12T07:18:03;19.38;;;7.75;;
46597;SDS011;32318;48.858;8.252;2023-09-12T07:26:05;20.25;;;7.78;;
46597;SDS011;32318;48.858;8.252;2023-09-12T07:34:05;17.27;;;8.05;;
46597;SDS011;32318;48.858;8.252;2023-09-12T07:42:06;16.60;;;7.20;;
46597;SDS011;32318;48.858;8.252;2023-09-12T07:50:06;21.03;;;7.80;;
46597;SDS011;32318;48.858;8.252;2023-09-12T07:58:07;17.73;;;7.90;;
46597;SDS011;32318;48.858;8.252;2023-09-12T08:06:07;28.05;;;8.82;;
46597;SDS011;32318;48.858;8.252;2023-09-12T08:14:07;25.48;;;9.63;;
46597;SDS011;32318;48.858;8.252;2023-09-12T08:22:08;13.85;;;7.80;;
46597;SDS011;32318;48.858;8.252;2023-09-12T08:30:10;25.40;;;8.57;;
46597;SDS011;32318;48.858;8.252;2023-09-12T08:38:11;19.75;;;7.82;;
46597;SDS011;32318;48.858;8.252;2023-09-12T08:46:11;20.55;;;8.57;;
46597;SDS011;32318;48.858;8.252;2023-09-12T08:54:12;21.90;;;8.80;;
46597;SDS011;32318;48.858;8.252;2023-09-12T09:02:13;21.57;;;8.83;;
46597;SDS011;32318;48.858;8.252;2023-09-12T09:10:15;19.75;;;8.52;;
46597;SDS011;32318;48.858;8.252;2023-09-12T09:18:16;20.98;;;8.80;;
46597;SDS011;32318;48.858;8.252;2023-09-12T09:26:18;19.55;;;8.48;;
46597;SDS011;32318;48.858;8.252;2023-09-12T09:34:20;22.35;;;7.90;;
46597;SDS011;32318;48.858;8.252;2023-09-12T09:42:21;23.70;;;8.02;;
46597;SDS011;32318;48.858;8.252;2023-09-12T09:50:21;25.63;;;8.57;;
46597;SDS011;32318;48.858;8.252;2023-09-12T09:58:23;25.63;;;8.50;;
46597;SDS011;32318;48.858;8.252;2023-09-12T10:06:23;21.50;;;8.15;;
46597;SDS011;32318;48.858;8.252;2023-09-12T10:14:24;23.02;;;8.38;;
46597;SDS011;32318;48.858;8.252;2023-09-12T10:22:39;23.40;;;8.30;;
46597;SDS011;32318;48.858;8.252;2023-09-12T10:30:43;25.95;;;7.47;;
46597;SDS011;32318;48.858;8.252;2023-09-12T10:38:45;26.13;;;7.90;;
46597;SDS011;32318;48.858;8.252;2023-09-12T10:46:47;27.42;;;8.35;;
46597;SDS011;32318;48.858;8.252;2023-09-12T10:54:49;27.50;;;8.07;;
46597;SDS011;32318;48.858;8.252;2023-09-12T11:02:49;20.45;;;7.80;;
46597;SDS011;32318;48.858;8.252;2023-09-12T11:11:16;19.87;;;7.80;;
46597;SDS011;32318;48.858;8.252;2023-09-12T11:19:18;13.27;;;6.45;;
46597;SDS011;32318;48.858;8.252;2023-09-12T11:27:20;13.32;;;6.75;;
46597;SDS011;32318;48.858;8.252;2023-09-12T11:35:24;14.90;;;6.28;;
46597;SDS011;32318;48.858;8.252;2023-09-12T11:43:26;17.65;;;5.50;;
46597;SDS011;32318;48.858;8.252;2023-09-12T11:51:27;8.90;;;5.57;;
46597;SDS011;32318;48.858;8.252;2023-09-12T11:59:29;13.80;;;4.88;;
46597;SDS011;32318;48.858;8.252;2023-09-12T12:07:30;14.18;;;4.65;;
46597;SDS011;32318;48.858;8.252;2023-09-12T12:15:30;18.57;;;4.90;;
46597;SDS011;32318;48.858;8.252;2023-09-12T12:23:30;9.75;;;5.00;;
46597;SDS011;32318;48.858;8.252;2023-09-12T12:31:31;18.90;;;4.55;;
46597;SDS011;32318;48.858;8.252;2023-09-12T12:39:31;11.73;;;4.50;;
46597;SDS011;32318;48.858;8.252;2023-09-12T12:47:32;19.23;;;5.13;;
46597;SDS011;32318;48.858;8.252;2023-09-12T12:55:33;20.33;;;5.07;;
46597;SDS011;32318;48.858;8.252;2023-09-12T13:03:35;11.43;;;4.82;;
46597;SDS011;32318;48.858;8.252;2023-09-12T13:11:35;15.45;;;5.38;;
46597;SDS011;32318;48.858;8.252;2023-09-12T13:19:35;12.98;;;4.78;;
46597;SDS011;32318;48.858;8.252;2023-09-12T13:27:36;14.57;;;4.70;;
46597;SDS011;32318;48.858;8.252;2023-09-12T13:35:36;14.05;;;4.85;;
46597;SDS011;32318;48.858;8.252;2023-09-12T13:43:37;9.45;;;4.13;;
46597;SDS011;32318;48.858;8.252;2023-09-12T13:51:37;16.95;;;4.93;;
46597;SDS011;32318;48.858;8.252;2023-09-12T13:59:37;11.77;;;4.40;;
46597;SDS011;32318;48.858;8.252;2023-09-12T14:07:38;11.38;;;5.22;;
46597;SDS011;32318;48.858;8.252;2023-09-12T14:15:39;9.43;;;4.82;;
46597;SDS011;32318;48.858;8.252;2023-09-12T14:23:39;11.38;;;4.85;;
46597;SDS011;32318;48.858;8.252;2023-09-12T14:31:40;8.88;;;4.93;;
46597;SDS011;32318;48.858;8.252;2023-09-12T14:39:49;7.10;;;4.70;;
46597;SDS011;32318;48.858;8.252;2023-09-12T14:47:49;11.50;;;4.80;;
46597;SDS011;32318;48.858;8.252;2023-09-12T14:55:49;11.25;;;4.18;;
46597;SDS011;32318;48.858;8.252;2023-09-12T15:03:50;12.45;;;4.00;;
46597;SDS011;32318;48.858;8.252;2023-09-12T15:11:51;11.20;;;4.30;;
46597;SDS011;32318;48.858;8.252;2023-09-12T15:19:51;11.82;;;4.93;;
46597;SDS011;32318;48.858;8.252;2023-09-12T15:27:51;9.40;;;4.55;;
46597;SDS011;32318;48.858;8.252;2023-09-12T15:35:51;7.35;;;4.25;;
46597;SDS011;32318;48.858;8.252;2023-09-12T15:43:52;12.63;;;4.18;;
46597;SDS011;32318;48.858;8.252;2023-09-12T15:51:52;8.27;;;4.22;;
46597;SDS011;32318;48.858;8.252;2023-09-12T15:59:52;15.87;;;3.90;;
46597;SDS011;32318;48.858;8.252;2023-09-12T16:07:53;8.45;;;3.90;;
46597;SDS011;32318;48.858;8.252;2023-09-12T16:15:53;10.50;;;4.50;;
46597;SDS011;32318;48.858;8.252;2023-09-12T16:23:53;9.07;;;4.35;;
46597;SDS011;32318;48.858;8.252;2023-09-12T16:31:54;14.95;;;4.75;;
46597;SDS011;32318;48.858;8.252;2023-09-12T16:39:54;13.07;;;4.90;;
46597;SDS011;32318;48.858;8.252;2023-09-12T16:47:54;23.08;;;4.72;;
46597;SDS011;32318;48.858;8.252;2023-09-12T16:55:55;8.82;;;4.70;;
46597;SDS011;32318;48.858;8.252;2023-09-12T17:03:59;10.40;;;4.40;;
46597;SDS011;32318;48.858;8.252;2023-09-12T17:12:01;15.55;;;6.30;;
46597;SDS011;32318;48.858;8.252;2023-09-12T17:20:01;13.10;;;5.05;;
46597;SDS011;32318;48.858;8.252;2023-09-12T17:28:02;17.58;;;4.78;;
46597;SDS011;32318;48.858;8.252;2023-09-12T17:36:02;10.30;;;4.72;;
46597;SDS011;32318;48.858;8.252;2023-09-12T17:44:03;16.13;;;5.35;;
46597;SDS011;32318;48.858;8.252;2023-09-12T17:52:05;11.88;;;5.15;;
46597;SDS011;32318;48.858;8.252;2023-09-12T18:00:05;21.05;;;4.72;;
46597;SDS011;32318;48.858;8.252;2023-09-12T18:08:06;12.05;;;4.80;;
46597;SDS011;32318;48.858;8.252;2023-09-12T18:16:06;9.40;;;5.22;;
46597;SDS011;32318;48.858;8.252;2023-09-12T18:24:07;12.52;;;5.90;;
46597;SDS011;32318;48.858;8.252;2023-09-12T18:32:07;10.30;;;5.32;;
46597;SDS011;32318;48.858;8.252;2023-09-12T18:40:07;11.35;;;5.05;;
46597;SDS011;32318;48.858;8.252;2023-09-12T18:48:08;15.85;;;5.90;;
46597;SDS011;32318;48.858;8.252;2023-09-12T18:56:08;7.38;;;4.50;;
46597;SDS011;32318;48.858;8.252;2023-09-12T19:04:22;13.13;;;4.70;;
46597;SDS011;32318;48.858;8.252;2023-09-12T19:12:23;7.18;;;4.38;;
46597;SDS011;32318;48.858;8.252;2023-09-12T19:20:23;9.50;;;4.32;;
46597;SDS011;32318;48.858;8.252;2023-09-12T19:28:23;6.78;;;4.13;;
46597;SDS011;32318;48.858;8.252;2023-09-12T19:36:24;7.45;;;3.95;;
46597;SDS011;32318;48.858;8.252;2023-09-12T19:44:24;8.98;;;4.25;;
46597;SDS011;32318;48.858;8.252;2023-09-12T19:52:26;12.32;;;4.60;;
46597;SDS011;32318;48.858;8.252;2023-09-12T20:00:27;15.25;;;4.18;;
46597;SDS011;32318;48.858;8.252;2023-09-12T20:08:27;9.88;;;3.80;;
46597;SDS011;32318;48.858;8.252;2023-09-12T20:16:28;14.25;;;4.68;;
46597;SDS011;32318;48.858;8.252;2023-09-12T20:24:28;5.53;;;3.60;;
46597;SDS011;32318;48.858;8.252;2023-09-12T20:32:28;7.93;;;3.03;;
46597;SDS011;32318;48.858;8.252;2023-09-12T20:40:29;11.32;;;3.60;;
46597;SDS011;32318;48.858;8.252;2023-09-12T20:48:29;14.45;;;3.67;;
46597;SDS011;32318;48.858;8.252;2023-09-12T20:56:31;8.93;;;3.60;;
46597;SDS011;32318;48.858;8.252;2023-09-12T21:04:32;7.95;;;3.85;;
46597;SDS011;32318;48.858;8.252;2023-09-12T21:12:33;12.98;;;3.65;;
46597;SDS011;32318;48.858;8.252;2023-09-12T21:20:33;10.32;;;3.72;;
46597;SDS011;32318;48.858;8.252;2023-09-12T21:28:34;10.32;;;4.05;;
46597;SDS011;32318;48.858;8.252;2023-09-12T21:36:35;9.15;;;3.90;;
46597;SDS011;32318;48.858;8.252;2023-09-12T21:44:36;6.70;;;3.58;;
46597;SDS011;32318;48.858;8.252;2023-09-12T21:52:36;13.18;;;3.75;;
46597;SDS011;32318;48.858;8.252;2023-09-12T22:00:37;8.27;;;4.10;;
46597;SDS011;32318;48.858;8.252;2023-09-12T22:08:39;7.03;;;3.47;;
46597;SDS011;32318;48.858;8.252;2023-09-12T22:16:40;11.03;;;3.50;;
46597;SDS011;32318;48.858;8.252;2023-09-12T22:24:40;12.00;;;3.92;;
46597;SDS011;32318;48.858;8.252;2023-09-12T22:32:40;6.00;;;3.47;;
46597;SDS011;32318;48.858;8.252;2023-09-12T22:40:40;7.95;;;3.38;;
46597;SDS011;32318;48.858;8.252;2023-09-12T22:48:41;10.00;;;4.40;;
46597;SDS011;32318;48.858;8.252;2023-09-12T22:56:41;7.72;;;3.30;;
46597;SDS011;32318;48.858;8.252;2023-09-12T23:04:41;6.63;;;2.92;;
46597;SDS011;32318;48.858;8.252;2023-09-12T23:12:42;6.47;;;3.40;;
46597;SDS011;32318;48.858;8.252;2023-09-12T23:20:42;8.93;;;3.20;;
46597;SDS011;32318;48.858;8.252;2023-09-12T23:28:44;7.75;;;3.40;;
46597;SDS011;32318;48.858;8.252;2023-09-12T23:36:44;8.88;;;3.53;;
46597;SDS011;32318;48.858;8.252;2023-09-12T23:44:44;6.88;;;3.20;;
46597;SDS011;32318;48.858;8.252;2023-09-12T23:52:45;9.43;;;3.23;;
